sensor_id;sensor_type;location;lat;lon;timestamp;P1;durP1;ratioP1;P2;durP2;ratioP2
78728;SDS011;68252;44.944;20.218;2024-01-15T00:02:19;165.32;;;69.78;;
78728;SDS011;68252;44.944;20.218;2024-01-15T00:04:45;159.48;;;67.82;;
78728;SDS011;68252;44.944;20.218;2024-01-15T00:07:11;163.88;;;68.45;;
78728;SDS011;68252;44.944;20.218;2024-01-15T00:09:37;143.73;;;64.70;;
78728;SDS011;68252;44.944;20.218;2024-01-15T00:12:03;138.25;;;54.78;;
78728;SDS011;68252;44.944;20.218;2024-01-15T00:14:29;127.35;;;55.35;;
78728;SDS011;68252;44.944;20.218;2024-01-15T00:16:55;147.35;;;58.00;;
78728;SDS011;68252;44.944;20.218;2024-01-15T00:19:21;140.57;;;60.42;;
78728;SDS011;68252;44.944;20.218;2024-01-15T00:21:48;135.95;;;58.42;;
78728;SDS011;68252;44.944;20.218;2024-01-15T00:24:14;130.57;;;55.60;;
78728;SDS011;68252;44.944;20.218;2024-01-15T00:26:41;139.73;;;59.80;;
78728;SDS011;68252;44.944;20.218;2024-01-15T00:29:09;152.20;;;61.08;;
78728;SDS011;68252;44.944;20.218;2024-01-15T00:31:36;141.15;;;59.47;;
78728;SDS011;68252;44.944;20.218;2024-01-15T00:34:02;131.45;;;55.40;;
78728;SDS011;68252;44.944;20.218;2024-01-15T00:36:28;132.95;;;56.55;;
78728;SDS011;68252;44.944;20.218;2024-01-15T00:38:54;123.32;;;54.78;;
78728;SDS011;68252;44.944;20.218;2024-01-15T00:41:20;133.40;;;54.72;;
78728;SDS011;68252;44.944;20.218;2024-01-15T00:43:46;125.30;;;53.67;;
78728;SDS011;68252;44.944;20.218;2024-01-15T00:46:14;120.22;;;52.65;;
78728;SDS011;68252;44.944;20.218;2024-01-15T00:48:40;123.32;;;54.33;;
78728;SDS011;68252;44.944;20.218;2024-01-15T00:51:06;130.70;;;54.13;;
78728;SDS011;68252;44.944;20.218;2024-01-15T00:53:32;120.80;;;51.70;;
78728;SDS011;68252;44.944;20.218;2024-01-15T00:55:59;119.32;;;51.33;;
78728;SDS011;68252;44.944;20.218;2024-01-15T00:58:25;120.60;;;49.63;;
78728;SDS011;68252;44.944;20.218;2024-01-15T01:00:52;112.68;;;47.30;;
78728;SDS011;68252;44.944;20.218;2024-01-15T01:03:18;110.60;;;47.28;;
78728;SDS011;68252;44.944;20.218;2024-01-15T01:05:44;121.00;;;50.72;;
78728;SDS011;68252;44.944;20.218;2024-01-15T01:08:10;118.13;;;46.95;;
78728;SDS011;68252;44.944;20.218;2024-01-15T01:10:37;122.40;;;51.25;;
78728;SDS011;68252;44.944;20.218;2024-01-15T01:13:03;115.90;;;49.08;;
78728;SDS011;68252;44.944;20.218;2024-01-15T01:15:29;111.65;;;48.42;;
78728;SDS011;68252;44.944;20.218;2024-01-15T01:17:55;120.70;;;49.25;;
78728;SDS011;68252;44.944;20.218;2024-01-15T01:20:21;148.48;;;58.15;;
78728;SDS011;68252;44.944;20.218;2024-01-15T01:22:47;142.05;;;57.05;;
78728;SDS011;68252;44.944;20.218;2024-01-15T01:25:13;140.68;;;55.75;;
78728;SDS011;68252;44.944;20.218;2024-01-15T01:27:39;143.93;;;59.55;;
78728;SDS011;68252;44.944;20.218;2024-01-15T01:30:06;155.43;;;62.30;;
78728;SDS011;68252;44.944;20.218;2024-01-15T01:32:32;144.23;;;58.10;;
78728;SDS011;68252;44.944;20.218;2024-01-15T01:34:58;147.85;;;59.15;;
78728;SDS011;68252;44.944;20.218;2024-01-15T01:37:24;147.80;;;58.17;;
78728;SDS011;68252;44.944;20.218;2024-01-15T01:39:50;150.50;;;59.75;;
78728;SDS011;68252;44.944;20.218;2024-01-15T01:42:16;144.65;;;58.08;;
78728;SDS011;68252;44.944;20.218;2024-01-15T01:44:42;144.85;;;59.65;;
78728;SDS011;68252;44.944;20.218;2024-01-15T01:47:08;130.98;;;54.50;;
78728;SDS011;68252;44.944;20.218;2024-01-15T01:49:35;141.27;;;58.97;;
78728;SDS011;68252;44.944;20.218;2024-01-15T01:52:01;135.90;;;57.45;;
78728;SDS011;68252;44.944;20.218;2024-01-15T01:54:29;143.00;;;55.20;;
78728;SDS011;68252;44.944;20.218;2024-01-15T01:56:55;132.43;;;54.88;;
78728;SDS011;68252;44.944;20.218;2024-01-15T01:59:22;122.65;;;52.20;;
78728;SDS011;68252;44.944;20.218;2024-01-15T02:01:48;131.40;;;53.33;;
78728;SDS011;68252;44.944;20.218;2024-01-15T02:04:16;124.13;;;51.55;;
78728;SDS011;68252;44.944;20.218;2024-01-15T02:06:43;131.57;;;51.83;;
78728;SDS011;68252;44.944;20.218;2024-01-15T02:09:09;121.72;;;48.97;;
78728;SDS011;68252;44.944;20.218;2024-01-15T02:11:40;124.47;;;50.20;;
78728;SDS011;68252;44.944;20.218;2024-01-15T02:14:06;117.50;;;47.38;;
78728;SDS011;68252;44.944;20.218;2024-01-15T02:16:32;115.45;;;47.13;;
78728;SDS011;68252;44.944;20.218;2024-01-15T02:18:58;115.47;;;45.42;;
78728;SDS011;68252;44.944;20.218;2024-01-15T02:21:24;108.05;;;45.22;;
78728;SDS011;68252;44.944;20.218;2024-01-15T02:23:53;114.63;;;45.72;;
78728;SDS011;68252;44.944;20.218;2024-01-15T02:26:19;107.25;;;43.30;;
78728;SDS011;68252;44.944;20.218;2024-01-15T02:28:45;117.40;;;47.08;;
78728;SDS011;68252;44.944;20.218;2024-01-15T02:31:12;110.50;;;45.50;;
78728;SDS011;68252;44.944;20.218;2024-01-15T02:33:38;108.90;;;44.33;;
78728;SDS011;68252;44.944;20.218;2024-01-15T02:36:04;116.18;;;44.90;;
78728;SDS011;68252;44.944;20.218;2024-01-15T02:38:30;108.20;;;43.63;;
78728;SDS011;68252;44.944;20.218;2024-01-15T02:40:56;100.57;;;41.17;;
78728;SDS011;68252;44.944;20.218;2024-01-15T02:43:22;108.25;;;43.45;;
78728;SDS011;68252;44.944;20.218;2024-01-15T02:45:48;104.50;;;40.75;;
78728;SDS011;68252;44.944;20.218;2024-01-15T02:48:14;100.03;;;40.78;;
78728;SDS011;68252;44.944;20.218;2024-01-15T02:50:40;89.40;;;38.92;;
78728;SDS011;68252;44.944;20.218;2024-01-15T02:53:06;86.00;;;36.90;;
78728;SDS011;68252;44.944;20.218;2024-01-15T02:55:32;95.18;;;38.75;;
78728;SDS011;68252;44.944;20.218;2024-01-15T02:57:59;83.72;;;34.83;;
78728;SDS011;68252;44.944;20.218;2024-01-15T03:00:27;87.57;;;36.05;;
78728;SDS011;68252;44.944;20.218;2024-01-15T03:02:54;92.87;;;38.80;;
78728;SDS011;68252;44.944;20.218;2024-01-15T03:05:20;88.10;;;35.63;;
78728;SDS011;68252;44.944;20.218;2024-01-15T03:07:46;83.93;;;36.35;;
78728;SDS011;68252;44.944;20.218;2024-01-15T03:10:12;79.93;;;32.88;;
78728;SDS011;68252;44.944;20.218;2024-01-15T03:12:38;83.60;;;35.47;;
78728;SDS011;68252;44.944;20.218;2024-01-15T03:15:05;86.85;;;35.70;;
78728;SDS011;68252;44.944;20.218;2024-01-15T03:17:33;79.63;;;33.77;;
78728;SDS011;68252;44.944;20.218;2024-01-15T03:20:00;70.70;;;29.88;;
78728;SDS011;68252;44.944;20.218;2024-01-15T03:22:26;77.78;;;32.58;;
78728;SDS011;68252;44.944;20.218;2024-01-15T03:24:52;73.50;;;30.30;;
78728;SDS011;68252;44.944;20.218;2024-01-15T03:27:19;72.22;;;30.98;;
78728;SDS011;68252;44.944;20.218;2024-01-15T03:29:45;63.20;;;27.90;;
78728;SDS011;68252;44.944;20.218;2024-01-15T03:32:11;71.95;;;30.27;;
78728;SDS011;68252;44.944;20.218;2024-01-15T03:34:37;62.42;;;28.63;;
78728;SDS011;68252;44.944;20.218;2024-01-15T03:37:03;59.65;;;26.48;;
78728;SDS011;68252;44.944;20.218;2024-01-15T03:39:29;54.35;;;23.02;;
78728;SDS011;68252;44.944;20.218;2024-01-15T03:41:55;53.75;;;22.60;;
78728;SDS011;68252;44.944;20.218;2024-01-15T03:44:22;45.97;;;19.45;;
78728;SDS011;68252;44.944;20.218;2024-01-15T03:46:48;35.78;;;16.58;;
78728;SDS011;68252;44.944;20.218;2024-01-15T03:49:14;34.97;;;16.45;;
78728;SDS011;68252;44.944;20.218;2024-01-15T03:51:40;31.38;;;16.23;;
78728;SDS011;68252;44.944;20.218;2024-01-15T03:54:06;50.30;;;19.88;;
78728;SDS011;68252;44.944;20.218;2024-01-15T03:56:32;50.67;;;23.38;;
78728;SDS011;68252;44.944;20.218;2024-01-15T03:58:58;57.38;;;25.23;;
78728;SDS011;68252;44.944;20.218;2024-01-15T04:01:36;62.10;;;26.52;;
78728;SDS011;68252;44.944;20.218;2024-01-15T04:04:22;69.18;;;30.38;;
78728;SDS011;68252;44.944;20.218;2024-01-15T04:06:51;77.13;;;32.28;;
78728;SDS011;68252;44.944;20.218;2024-01-15T04:09:17;76.03;;;33.90;;
78728;SDS011;68252;44.944;20.218;2024-01-15T04:11:43;73.10;;;31.73;;
78728;SDS011;68252;44.944;20.218;2024-01-15T04:14:09;78.65;;;34.13;;
78728;SDS011;68252;44.944;20.218;2024-01-15T04:16:36;85.07;;;35.08;;
78728;SDS011;68252;44.944;20.218;2024-01-15T04:19:02;79.80;;;34.05;;
78728;SDS011;68252;44.944;20.218;2024-01-15T04:21:28;75.82;;;33.17;;
78728;SDS011;68252;44.944;20.218;2024-01-15T04:23:55;67.10;;;32.40;;
78728;SDS011;68252;44.944;20.218;2024-01-15T04:26:21;69.07;;;32.22;;
78728;SDS011;68252;44.944;20.218;2024-01-15T04:28:47;65.85;;;29.48;;
78728;SDS011;68252;44.944;20.218;2024-01-15T04:31:25;62.38;;;27.67;;
78728;SDS011;68252;44.944;20.218;2024-01-15T04:33:55;63.30;;;29.02;;
78728;SDS011;68252;44.944;20.218;2024-01-15T04:36:21;120.03;;;39.78;;
78728;SDS011;68252;44.944;20.218;2024-01-15T04:38:48;69.63;;;33.05;;
78728;SDS011;68252;44.944;20.218;2024-01-15T04:41:14;71.78;;;29.70;;
78728;SDS011;68252;44.944;20.218;2024-01-15T04:43:40;77.93;;;31.48;;
78728;SDS011;68252;44.944;20.218;2024-01-15T04:46:06;96.50;;;34.78;;
78728;SDS011;68252;44.944;20.218;2024-01-15T04:48:32;64.50;;;28.70;;
78728;SDS011;68252;44.944;20.218;2024-01-15T04:50:58;57.40;;;28.40;;
78728;SDS011;68252;44.944;20.218;2024-01-15T04:53:25;65.82;;;30.77;;
78728;SDS011;68252;44.944;20.218;2024-01-15T04:55:51;66.38;;;30.60;;
78728;SDS011;68252;44.944;20.218;2024-01-15T04:58:17;67.32;;;29.65;;
78728;SDS011;68252;44.944;20.218;2024-01-15T05:00:43;56.55;;;26.20;;
78728;SDS011;68252;44.944;20.218;2024-01-15T05:03:09;60.38;;;28.05;;
78728;SDS011;68252;44.944;20.218;2024-01-15T05:05:35;59.85;;;27.67;;
78728;SDS011;68252;44.944;20.218;2024-01-15T05:08:02;55.47;;;23.80;;
78728;SDS011;68252;44.944;20.218;2024-01-15T05:10:28;59.97;;;25.08;;
78728;SDS011;68252;44.944;20.218;2024-01-15T05:12:54;61.47;;;25.15;;
78728;SDS011;68252;44.944;20.218;2024-01-15T05:15:20;54.35;;;24.73;;
78728;SDS011;68252;44.944;20.218;2024-01-15T05:17:46;48.65;;;21.67;;
78728;SDS011;68252;44.944;20.218;2024-01-15T05:20:12;47.85;;;20.30;;
78728;SDS011;68252;44.944;20.218;2024-01-15T05:22:38;46.38;;;21.17;;
78728;SDS011;68252;44.944;20.218;2024-01-15T05:25:04;45.05;;;20.48;;
78728;SDS011;68252;44.944;20.218;2024-01-15T05:27:30;45.40;;;19.23;;
78728;SDS011;68252;44.944;20.218;2024-01-15T05:29:56;42.85;;;18.85;;
78728;SDS011;68252;44.944;20.218;2024-01-15T05:32:22;45.10;;;20.67;;
78728;SDS011;68252;44.944;20.218;2024-01-15T05:34:48;51.22;;;22.27;;
78728;SDS011;68252;44.944;20.218;2024-01-15T05:37:14;52.03;;;22.67;;
78728;SDS011;68252;44.944;20.218;2024-01-15T05:39:40;46.67;;;20.75;;
78728;SDS011;68252;44.944;20.218;2024-01-15T05:42:07;51.58;;;22.15;;
78728;SDS011;68252;44.944;20.218;2024-01-15T05:44:33;52.08;;;24.15;;
78728;SDS011;68252;44.944;20.218;2024-01-15T05:46:59;60.25;;;25.15;;
78728;SDS011;68252;44.944;20.218;2024-01-15T05:49:25;52.28;;;22.15;;
78728;SDS011;68252;44.944;20.218;2024-01-15T05:51:53;50.85;;;22.92;;
78728;SDS011;68252;44.944;20.218;2024-01-15T05:54:19;41.15;;;18.77;;
78728;SDS011;68252;44.944;20.218;2024-01-15T05:56:45;36.67;;;17.30;;
78728;SDS011;68252;44.944;20.218;2024-01-15T05:59:12;37.20;;;16.55;;
78728;SDS011;68252;44.944;20.218;2024-01-15T06:01:38;36.13;;;16.90;;
78728;SDS011;68252;44.944;20.218;2024-01-15T06:04:04;26.17;;;13.80;;
78728;SDS011;68252;44.944;20.218;2024-01-15T06:06:31;24.10;;;12.50;;
78728;SDS011;68252;44.944;20.218;2024-01-15T06:08:57;31.08;;;14.38;;
78728;SDS011;68252;44.944;20.218;2024-01-15T06:11:39;31.60;;;14.05;;
78728;SDS011;68252;44.944;20.218;2024-01-15T06:14:07;33.88;;;14.00;;
78728;SDS011;68252;44.944;20.218;2024-01-15T06:16:33;211.30;;;34.40;;
78728;SDS011;68252;44.944;20.218;2024-01-15T06:18:59;40.28;;;16.05;;
78728;SDS011;68252;44.944;20.218;2024-01-15T06:21:28;35.45;;;14.27;;
78728;SDS011;68252;44.944;20.218;2024-01-15T06:23:54;24.00;;;11.05;;
78728;SDS011;68252;44.944;20.218;2024-01-15T06:26:21;26.55;;;12.18;;
78728;SDS011;68252;44.944;20.218;2024-01-15T06:28:48;31.75;;;15.25;;
78728;SDS011;68252;44.944;20.218;2024-01-15T06:31:14;72.40;;;22.50;;
78728;SDS011;68252;44.944;20.218;2024-01-15T06:33:40;74.18;;;22.17;;
78728;SDS011;68252;44.944;20.218;2024-01-15T06:36:06;60.90;;;24.45;;
78728;SDS011;68252;44.944;20.218;2024-01-15T06:38:32;56.40;;;19.85;;
78728;SDS011;68252;44.944;20.218;2024-01-15T06:40:59;59.20;;;25.00;;
78728;SDS011;68252;44.944;20.218;2024-01-15T06:43:25;44.38;;;19.52;;
78728;SDS011;68252;44.944;20.218;2024-01-15T06:45:51;36.80;;;15.63;;
78728;SDS011;68252;44.944;20.218;2024-01-15T06:48:17;30.52;;;15.05;;
78728;SDS011;68252;44.944;20.218;2024-01-15T06:50:43;38.80;;;18.30;;
78728;SDS011;68252;44.944;20.218;2024-01-15T06:53:09;58.35;;;27.38;;
78728;SDS011;68252;44.944;20.218;2024-01-15T06:55:35;56.75;;;27.25;;
78728;SDS011;68252;44.944;20.218;2024-01-15T06:58:01;40.85;;;19.45;;
78728;SDS011;68252;44.944;20.218;2024-01-15T07:00:28;36.55;;;17.38;;
78728;SDS011;68252;44.944;20.218;2024-01-15T07:02:54;35.55;;;16.30;;
78728;SDS011;68252;44.944;20.218;2024-01-15T07:05:20;40.30;;;16.92;;
78728;SDS011;68252;44.944;20.218;2024-01-15T07:07:47;46.53;;;18.42;;
78728;SDS011;68252;44.944;20.218;2024-01-15T07:10:13;35.83;;;15.48;;
78728;SDS011;68252;44.944;20.218;2024-01-15T07:12:41;28.33;;;12.00;;
78728;SDS011;68252;44.944;20.218;2024-01-15T07:15:08;29.45;;;13.63;;
78728;SDS011;68252;44.944;20.218;2024-01-15T07:17:34;26.23;;;12.95;;
78728;SDS011;68252;44.944;20.218;2024-01-15T07:20:01;26.33;;;13.30;;
78728;SDS011;68252;44.944;20.218;2024-01-15T07:22:27;26.60;;;12.95;;
78728;SDS011;68252;44.944;20.218;2024-01-15T07:24:53;48.63;;;19.13;;
78728;SDS011;68252;44.944;20.218;2024-01-15T07:27:19;66.28;;;26.15;;
78728;SDS011;68252;44.944;20.218;2024-01-15T07:29:45;43.28;;;19.23;;
78728;SDS011;68252;44.944;20.218;2024-01-15T07:32:13;35.17;;;17.38;;
78728;SDS011;68252;44.944;20.218;2024-01-15T07:34:39;81.65;;;33.28;;
78728;SDS011;68252;44.944;20.218;2024-01-15T07:37:05;113.20;;;43.22;;
78728;SDS011;68252;44.944;20.218;2024-01-15T07:39:32;119.20;;;43.10;;
78728;SDS011;68252;44.944;20.218;2024-01-15T07:41:59;68.43;;;27.38;;
78728;SDS011;68252;44.944;20.218;2024-01-15T07:44:25;40.45;;;19.65;;
78728;SDS011;68252;44.944;20.218;2024-01-15T07:46:52;40.75;;;19.10;;
78728;SDS011;68252;44.944;20.218;2024-01-15T07:49:18;51.10;;;18.63;;
78728;SDS011;68252;44.944;20.218;2024-01-15T07:51:46;43.00;;;20.48;;
78728;SDS011;68252;44.944;20.218;2024-01-15T07:54:12;43.10;;;20.55;;
78728;SDS011;68252;44.944;20.218;2024-01-15T07:57:02;57.70;;;26.17;;
78728;SDS011;68252;44.944;20.218;2024-01-15T08:01:58;97.05;;;39.95;;
78728;SDS011;68252;44.944;20.218;2024-01-15T08:04:24;99.25;;;38.17;;
78728;SDS011;68252;44.944;20.218;2024-01-15T08:06:51;86.38;;;37.25;;
78728;SDS011;68252;44.944;20.218;2024-01-15T08:09:17;76.60;;;33.67;;
78728;SDS011;68252;44.944;20.218;2024-01-15T08:11:43;82.82;;;37.15;;
78728;SDS011;68252;44.944;20.218;2024-01-15T08:14:09;65.95;;;32.90;;
78728;SDS011;68252;44.944;20.218;2024-01-15T08:16:36;66.18;;;30.77;;
78728;SDS011;68252;44.944;20.218;2024-01-15T08:19:03;62.08;;;26.00;;
78728;SDS011;68252;44.944;20.218;2024-01-15T08:21:29;55.03;;;21.73;;
78728;SDS011;68252;44.944;20.218;2024-01-15T08:23:56;54.53;;;25.30;;
78728;SDS011;68252;44.944;20.218;2024-01-15T08:26:22;54.65;;;26.92;;
78728;SDS011;68252;44.944;20.218;2024-01-15T08:28:49;48.33;;;24.92;;
78728;SDS011;68252;44.944;20.218;2024-01-15T08:31:15;51.92;;;24.90;;
78728;SDS011;68252;44.944;20.218;2024-01-15T08:33:44;50.17;;;22.95;;
78728;SDS011;68252;44.944;20.218;2024-01-15T08:36:10;52.58;;;25.30;;
78728;SDS011;68252;44.944;20.218;2024-01-15T08:38:36;48.85;;;24.20;;
78728;SDS011;68252;44.944;20.218;2024-01-15T08:41:02;51.28;;;24.55;;
78728;SDS011;68252;44.944;20.218;2024-01-15T08:43:28;57.28;;;28.15;;
78728;SDS011;68252;44.944;20.218;2024-01-15T08:45:56;53.30;;;24.98;;
78728;SDS011;68252;44.944;20.218;2024-01-15T08:48:22;66.25;;;28.70;;
78728;SDS011;68252;44.944;20.218;2024-01-15T08:50:48;74.05;;;33.97;;
78728;SDS011;68252;44.944;20.218;2024-01-15T08:53:14;67.32;;;33.40;;
78728;SDS011;68252;44.944;20.218;2024-01-15T08:55:40;77.85;;;31.90;;
78728;SDS011;68252;44.944;20.218;2024-01-15T08:58:10;94.10;;;43.40;;
78728;SDS011;68252;44.944;20.218;2024-01-15T09:00:36;98.57;;;45.10;;
78728;SDS011;68252;44.944;20.218;2024-01-15T09:03:02;90.65;;;41.67;;
78728;SDS011;68252;44.944;20.218;2024-01-15T09:05:28;90.72;;;40.17;;
78728;SDS011;68252;44.944;20.218;2024-01-15T09:07:57;79.03;;;39.03;;
78728;SDS011;68252;44.944;20.218;2024-01-15T09:10:23;69.60;;;34.83;;
78728;SDS011;68252;44.944;20.218;2024-01-15T09:12:49;70.05;;;34.75;;
78728;SDS011;68252;44.944;20.218;2024-01-15T09:15:16;78.43;;;35.70;;
78728;SDS011;68252;44.944;20.218;2024-01-15T09:17:42;72.70;;;33.78;;
78728;SDS011;68252;44.944;20.218;2024-01-15T09:20:08;59.30;;;29.55;;
78728;SDS011;68252;44.944;20.218;2024-01-15T09:22:34;54.25;;;26.65;;
78728;SDS011;68252;44.944;20.218;2024-01-15T09:25:01;53.90;;;26.95;;
78728;SDS011;68252;44.944;20.218;2024-01-15T09:27:27;51.08;;;25.48;;
78728;SDS011;68252;44.944;20.218;2024-01-15T09:29:53;58.53;;;26.63;;
78728;SDS011;68252;44.944;20.218;2024-01-15T09:32:19;46.10;;;23.98;;
78728;SDS011;68252;44.944;20.218;2024-01-15T09:34:45;48.00;;;23.17;;
78728;SDS011;68252;44.944;20.218;2024-01-15T09:37:12;43.38;;;20.60;;
78728;SDS011;68252;44.944;20.218;2024-01-15T09:39:38;41.60;;;21.33;;
78728;SDS011;68252;44.944;20.218;2024-01-15T09:42:04;38.67;;;19.17;;
78728;SDS011;68252;44.944;20.218;2024-01-15T09:44:30;45.05;;;22.00;;
78728;SDS011;68252;44.944;20.218;2024-01-15T09:46:57;45.50;;;24.83;;
78728;SDS011;68252;44.944;20.218;2024-01-15T09:49:23;48.83;;;26.13;;
78728;SDS011;68252;44.944;20.218;2024-01-15T09:51:49;61.17;;;30.27;;
78728;SDS011;68252;44.944;20.218;2024-01-15T09:54:16;45.53;;;23.23;;
78728;SDS011;68252;44.944;20.218;2024-01-15T09:56:45;45.90;;;22.67;;
78728;SDS011;68252;44.944;20.218;2024-01-15T09:59:14;51.38;;;25.77;;
78728;SDS011;68252;44.944;20.218;2024-01-15T10:01:40;52.90;;;26.27;;
78728;SDS011;68252;44.944;20.218;2024-01-15T10:04:06;56.88;;;27.70;;
78728;SDS011;68252;44.944;20.218;2024-01-15T10:06:32;49.65;;;25.38;;
78728;SDS011;68252;44.944;20.218;2024-01-15T10:08:59;52.85;;;26.08;;
78728;SDS011;68252;44.944;20.218;2024-01-15T10:11:26;40.05;;;22.08;;
78728;SDS011;68252;44.944;20.218;2024-01-15T10:13:52;55.03;;;26.02;;
78728;SDS011;68252;44.944;20.218;2024-01-15T10:16:18;52.10;;;24.08;;
78728;SDS011;68252;44.944;20.218;2024-01-15T10:18:45;49.85;;;23.33;;
78728;SDS011;68252;44.944;20.218;2024-01-15T10:21:12;61.80;;;28.73;;
78728;SDS011;68252;44.944;20.218;2024-01-15T10:23:39;54.65;;;28.08;;
78728;SDS011;68252;44.944;20.218;2024-01-15T10:26:05;55.28;;;28.20;;
78728;SDS011;68252;44.944;20.218;2024-01-15T10:28:31;50.97;;;26.45;;
78728;SDS011;68252;44.944;20.218;2024-01-15T10:30:58;59.67;;;26.25;;
78728;SDS011;68252;44.944;20.218;2024-01-15T10:33:24;60.22;;;28.38;;
78728;SDS011;68252;44.944;20.218;2024-01-15T10:35:54;57.40;;;26.90;;
78728;SDS011;68252;44.944;20.218;2024-01-15T10:40:47;67.68;;;29.90;;
78728;SDS011;68252;44.944;20.218;2024-01-15T10:43:13;87.45;;;38.85;;
78728;SDS011;68252;44.944;20.218;2024-01-15T10:45:40;133.30;;;43.10;;
78728;SDS011;68252;44.944;20.218;2024-01-15T10:48:06;112.75;;;39.45;;
78728;SDS011;68252;44.944;20.218;2024-01-15T10:50:33;68.85;;;30.08;;
78728;SDS011;68252;44.944;20.218;2024-01-15T10:52:59;73.85;;;31.85;;
78728;SDS011;68252;44.944;20.218;2024-01-15T10:55:26;55.85;;;27.25;;
78728;SDS011;68252;44.944;20.218;2024-01-15T10:57:52;63.47;;;30.45;;
78728;SDS011;68252;44.944;20.218;2024-01-15T11:00:18;59.05;;;29.52;;
78728;SDS011;68252;44.944;20.218;2024-01-15T11:02:44;49.33;;;27.35;;
78728;SDS011;68252;44.944;20.218;2024-01-15T11:05:11;55.35;;;27.73;;
78728;SDS011;68252;44.944;20.218;2024-01-15T11:07:37;59.15;;;27.23;;
78728;SDS011;68252;44.944;20.218;2024-01-15T11:10:05;54.95;;;27.92;;
78728;SDS011;68252;44.944;20.218;2024-01-15T11:12:35;59.58;;;29.30;;
78728;SDS011;68252;44.944;20.218;2024-01-15T11:15:02;63.15;;;28.85;;
78728;SDS011;68252;44.944;20.218;2024-01-15T11:20:19;61.60;;;29.15;;
78728;SDS011;68252;44.944;20.218;2024-01-15T11:22:48;58.90;;;28.50;;
78728;SDS011;68252;44.944;20.218;2024-01-15T11:25:15;63.50;;;31.02;;
78728;SDS011;68252;44.944;20.218;2024-01-15T11:27:42;63.58;;;30.40;;
78728;SDS011;68252;44.944;20.218;2024-01-15T11:30:08;63.17;;;30.52;;
78728;SDS011;68252;44.944;20.218;2024-01-15T11:32:38;70.13;;;34.60;;
78728;SDS011;68252;44.944;20.218;2024-01-15T11:35:08;119.45;;;53.17;;
78728;SDS011;68252;44.944;20.218;2024-01-15T11:43:00;90.10;;;41.67;;
78728;SDS011;68252;44.944;20.218;2024-01-15T11:45:28;105.05;;;47.92;;
78728;SDS011;68252;44.944;20.218;2024-01-15T11:50:21;119.50;;;51.47;;
78728;SDS011;68252;44.944;20.218;2024-01-15T11:53:00;107.45;;;45.78;;
78728;SDS011;68252;44.944;20.218;2024-01-15T11:55:27;88.25;;;39.42;;
78728;SDS011;68252;44.944;20.218;2024-01-15T11:57:54;82.10;;;36.90;;
78728;SDS011;68252;44.944;20.218;2024-01-15T12:00:22;86.55;;;40.88;;
78728;SDS011;68252;44.944;20.218;2024-01-15T12:02:49;93.05;;;45.05;;
78728;SDS011;68252;44.944;20.218;2024-01-15T12:05:16;96.70;;;45.03;;
78728;SDS011;68252;44.944;20.218;2024-01-15T12:07:43;98.30;;;38.88;;
78728;SDS011;68252;44.944;20.218;2024-01-15T12:10:17;77.25;;;39.13;;
78728;SDS011;68252;44.944;20.218;2024-01-15T12:15:09;78.00;;;35.88;;
78728;SDS011;68252;44.944;20.218;2024-01-15T12:17:35;74.20;;;33.90;;
78728;SDS011;68252;44.944;20.218;2024-01-15T12:20:04;63.50;;;32.53;;
78728;SDS011;68252;44.944;20.218;2024-01-15T12:24:58;58.83;;;28.85;;
78728;SDS011;68252;44.944;20.218;2024-01-15T12:27:24;53.25;;;26.55;;
78728;SDS011;68252;44.944;20.218;2024-01-15T12:29:52;64.32;;;30.02;;
78728;SDS011;68252;44.944;20.218;2024-01-15T12:32:18;55.97;;;27.30;;
78728;SDS011;68252;44.944;20.218;2024-01-15T12:34:46;58.33;;;25.77;;
78728;SDS011;68252;44.944;20.218;2024-01-15T12:37:13;49.83;;;24.08;;
78728;SDS011;68252;44.944;20.218;2024-01-15T12:39:39;43.65;;;21.35;;
78728;SDS011;68252;44.944;20.218;2024-01-15T12:44:35;52.58;;;25.10;;
78728;SDS011;68252;44.944;20.218;2024-01-15T12:47:03;57.15;;;29.33;;
78728;SDS011;68252;44.944;20.218;2024-01-15T12:49:29;54.45;;;24.27;;
78728;SDS011;68252;44.944;20.218;2024-01-15T12:51:59;41.45;;;19.45;;
78728;SDS011;68252;44.944;20.218;2024-01-15T12:54:25;39.08;;;19.15;;
78728;SDS011;68252;44.944;20.218;2024-01-15T12:56:52;36.35;;;18.60;;
78728;SDS011;68252;44.944;20.218;2024-01-15T12:59:18;43.08;;;21.40;;
78728;SDS011;68252;44.944;20.218;2024-01-15T13:01:47;47.47;;;22.25;;
78728;SDS011;68252;44.944;20.218;2024-01-15T13:04:22;49.35;;;27.52;;
78728;SDS011;68252;44.944;20.218;2024-01-15T13:06:49;38.75;;;21.60;;
78728;SDS011;68252;44.944;20.218;2024-01-15T13:09:15;36.92;;;18.33;;
78728;SDS011;68252;44.944;20.218;2024-01-15T13:11:42;33.25;;;17.75;;
78728;SDS011;68252;44.944;20.218;2024-01-15T13:14:08;32.83;;;16.42;;
78728;SDS011;68252;44.944;20.218;2024-01-15T13:16:34;41.40;;;21.02;;
78728;SDS011;68252;44.944;20.218;2024-01-15T13:19:00;31.13;;;16.58;;
78728;SDS011;68252;44.944;20.218;2024-01-15T13:21:28;32.00;;;16.80;;
78728;SDS011;68252;44.944;20.218;2024-01-15T13:23:54;36.13;;;18.52;;
78728;SDS011;68252;44.944;20.218;2024-01-15T13:26:20;35.45;;;18.83;;
78728;SDS011;68252;44.944;20.218;2024-01-15T13:28:46;49.95;;;24.92;;
78728;SDS011;68252;44.944;20.218;2024-01-15T13:31:13;47.22;;;22.77;;
78728;SDS011;68252;44.944;20.218;2024-01-15T13:33:39;49.83;;;22.55;;
78728;SDS011;68252;44.944;20.218;2024-01-15T13:36:06;40.60;;;19.35;;
78728;SDS011;68252;44.944;20.218;2024-01-15T13:38:38;35.95;;;18.15;;
78728;SDS011;68252;44.944;20.218;2024-01-15T13:41:05;44.22;;;20.42;;
78728;SDS011;68252;44.944;20.218;2024-01-15T13:43:31;42.72;;;20.63;;
78728;SDS011;68252;44.944;20.218;2024-01-15T13:45:58;37.42;;;18.83;;
78728;SDS011;68252;44.944;20.218;2024-01-15T13:48:24;40.17;;;19.23;;
78728;SDS011;68252;44.944;20.218;2024-01-15T13:50:51;51.47;;;24.38;;
78728;SDS011;68252;44.944;20.218;2024-01-15T13:53:17;46.92;;;22.60;;
78728;SDS011;68252;44.944;20.218;2024-01-15T13:55:44;49.67;;;24.77;;
78728;SDS011;68252;44.944;20.218;2024-01-15T13:58:10;40.55;;;21.88;;
78728;SDS011;68252;44.944;20.218;2024-01-15T14:00:37;38.53;;;20.70;;
78728;SDS011;68252;44.944;20.218;2024-01-15T14:03:04;44.30;;;21.30;;
78728;SDS011;68252;44.944;20.218;2024-01-15T14:05:30;45.92;;;23.15;;
78728;SDS011;68252;44.944;20.218;2024-01-15T14:07:56;47.20;;;24.02;;
78728;SDS011;68252;44.944;20.218;2024-01-15T14:10:23;49.42;;;24.17;;
78728;SDS011;68252;44.944;20.218;2024-01-15T14:12:49;49.45;;;25.05;;
78728;SDS011;68252;44.944;20.218;2024-01-15T14:15:16;47.70;;;23.77;;
78728;SDS011;68252;44.944;20.218;2024-01-15T14:17:42;46.95;;;23.63;;
78728;SDS011;68252;44.944;20.218;2024-01-15T14:20:08;52.40;;;25.00;;
78728;SDS011;68252;44.944;20.218;2024-01-15T14:22:34;51.53;;;25.13;;
78728;SDS011;68252;44.944;20.218;2024-01-15T14:25:01;47.53;;;24.35;;
78728;SDS011;68252;44.944;20.218;2024-01-15T14:27:27;51.50;;;25.75;;